Página principal
METAR-TAF:

METAR-TAF

Aeroportos :

Teerã, Irão

Aeroporto Internacional de Mehrabad

latitude: 35-41N, longitude: 051-21E, altura: 1204 m

Observação actual do tempo

O boletim foi feito há 13 minutos, às 08:00 UTC
Vento 6 kt de sudeste
Temperatura 32°C
Humidade 16%
Pressão 1016 hPa
Visibilidade 10 km ou mais
Poucas nuvensa uma altura de 4000 ft

METAR: OIII 210800Z 14006KT 9999 FEW040 32/03 Q1016 A3000 NOSIG

Hora: 12:43 (08:13 UTC)

Previsão

O boletim foi feito há 3 horas e 13 minutos, às 05:00 UTC
Previsão válida de 21 às 06 UTC a 22 às 12 UTC
Vento 10 kt de es-sudeste
Visibilidade: 8000 m
Poucas nuvensa uma altura de 4000 ft

TAF: OIII 210500Z 2106/2212 12005MPS 8000 FEW040

Observações e previsões do tempo de mais de 4000 aeroportos (mensagens METAR e TAF).

As estações disponíveis são os pontos amarelos e vermelhos sobre o mapa.

Mova o rato sobre o mapa para ver o nome da estação.

Depois clique no ponto para visualizar as observações e previsões meteorológicas.

Para alterar o mapa : clique nos botões verdes com uma cruz preta para aumentar o zoom; no botão verde com uma pitada de zoom; ou nas setas verdes para mapas adjacentes.


METAR-TAF: